createdAt,value
2022-08-12T00:02:02.809Z,21.90
2022-08-12T00:05:27.926Z,21.90
2022-08-12T00:08:50.261Z,21.90
2022-08-12T00:12:11.019Z,21.80
2022-08-12T00:15:34.339Z,21.70
2022-08-12T00:18:54.987Z,21.70
2022-08-12T00:22:17.658Z,21.60
2022-08-12T00:26:05.565Z,21.60
2022-08-12T00:29:18.942Z,21.50
2022-08-12T00:32:40.147Z,21.40
2022-08-12T00:36:09.761Z,21.40
2022-08-12T00:39:40.430Z,21.40
2022-08-12T00:42:42.927Z,21.40
2022-08-12T00:46:03.309Z,21.30
2022-08-12T00:49:07.810Z,21.30
2022-08-12T00:52:11.187Z,21.20
2022-08-12T00:55:16.556Z,21.20
2022-08-12T00:58:25.846Z,21.10
2022-08-12T01:01:30.459Z,21.10
2022-08-12T01:05:12.564Z,21.10
2022-08-12T01:08:44.641Z,21.00
2022-08-12T01:11:51.010Z,21.00
2022-08-12T01:14:57.496Z,20.90
2022-08-12T01:18:00.466Z,20.80
2022-08-12T01:21:20.384Z,20.90
2022-08-12T01:24:50.357Z,20.90
2022-08-12T01:27:55.775Z,20.80
2022-08-12T01:31:02.277Z,20.80
2022-08-12T01:34:35.827Z,20.70
2022-08-12T01:37:31.600Z,20.70
2022-08-12T01:40:40.477Z,20.60
2022-08-12T01:43:46.942Z,20.50
2022-08-12T01:47:05.727Z,20.50
2022-08-12T01:50:20.914Z,20.50
2022-08-12T01:53:27.001Z,20.50
2022-08-12T01:56:43.554Z,20.40
2022-08-12T01:59:53.416Z,20.40
2022-08-12T02:03:17.867Z,20.40
2022-08-12T02:06:45.107Z,20.40
2022-08-12T02:10:49.563Z,20.30
2022-08-12T02:14:24.430Z,20.30
2022-08-12T02:17:55.584Z,20.20
2022-08-12T02:21:05.150Z,20.20
2022-08-12T02:24:10.931Z,20.20
2022-08-12T02:27:16.112Z,20.20
2022-08-12T02:30:23.806Z,20.20
2022-08-12T02:33:26.834Z,20.20
2022-08-12T02:36:32.790Z,20.10
2022-08-12T02:39:41.780Z,20.10
2022-08-12T02:42:52.145Z,20.00
2022-08-12T02:46:01.378Z,20.00
2022-08-12T02:49:06.275Z,19.90
2022-08-12T02:52:10.275Z,20.00
2022-08-12T02:55:34.186Z,20.00
2022-08-12T02:58:41.360Z,20.00
2022-08-12T03:01:51.631Z,20.00
2022-08-12T03:04:57.513Z,20.00
2022-08-12T03:08:04.365Z,19.90
2022-08-12T03:11:17.203Z,20.00
2022-08-12T03:14:22.854Z,20.00
2022-08-12T03:17:33.640Z,19.90
2022-08-12T03:20:40.287Z,19.80
2022-08-12T03:23:45.606Z,19.70
2022-08-12T03:26:49.513Z,19.70
2022-08-12T03:29:55.385Z,19.70
2022-08-12T03:33:01.746Z,19.70
2022-08-12T03:36:07.022Z,19.60
2022-08-12T03:39:40.750Z,19.60
2022-08-12T03:43:06.558Z,19.70
2022-08-12T03:46:41.340Z,19.60
2022-08-12T03:50:03.805Z,19.50
2022-08-12T03:53:25.901Z,19.50
2022-08-12T03:56:46.726Z,19.50
2022-08-12T04:00:06.923Z,19.40
2022-08-12T04:03:36.778Z,19.50
2022-08-12T04:06:45.897Z,19.50
2022-08-12T04:09:48.847Z,19.50
2022-08-12T04:13:26.547Z,19.50
2022-08-12T04:16:29.529Z,19.40
2022-08-12T04:19:32.624Z,19.30
2022-08-12T04:22:37.460Z,19.30
2022-08-12T04:25:41.533Z,19.20
2022-08-12T04:28:44.518Z,19.20
2022-08-12T04:31:47.792Z,19.20
2022-08-12T04:34:51.127Z,19.20
2022-08-12T04:37:59.364Z,19.20
2022-08-12T04:41:04.273Z,19.10
2022-08-12T04:44:08.211Z,19.10
2022-08-12T04:47:14.162Z,19.10
2022-08-12T04:50:34.831Z,19.20
2022-08-12T04:53:41.810Z,19.20
2022-08-12T04:56:45.766Z,19.10
2022-08-12T05:00:10.797Z,19.20
2022-08-12T05:03:14.032Z,19.20
2022-08-12T05:06:26.823Z,19.20
2022-08-12T05:09:58.689Z,19.10
2022-08-12T05:12:58.789Z,19.20
2022-08-12T05:16:05.070Z,19.30
2022-08-12T05:19:13.122Z,19.30
2022-08-12T05:22:21.690Z,19.30
2022-08-12T05:25:26.122Z,19.40
2022-08-12T05:28:30.406Z,19.40
2022-08-12T05:31:40.574Z,19.40
2022-08-12T05:34:51.475Z,19.40
2022-08-12T05:38:14.665Z,19.50
2022-08-12T05:41:22.499Z,19.40
2022-08-12T05:44:25.399Z,19.50
2022-08-12T05:47:36.649Z,19.50
2022-08-12T05:50:52.946Z,19.60
2022-08-12T05:53:57.194Z,19.60
2022-08-12T05:57:02.209Z,19.60
2022-08-12T06:00:07.234Z,19.60
2022-08-12T06:03:11.052Z,19.70
2022-08-12T06:06:17.036Z,19.80
2022-08-12T06:09:22.369Z,19.80
2022-08-12T06:12:26.819Z,19.80
2022-08-12T06:15:30.571Z,19.80
2022-08-12T06:18:33.519Z,19.90
2022-08-12T06:21:37.699Z,19.90
2022-08-12T06:24:42.092Z,19.90
2022-08-12T06:28:08.042Z,20.00
2022-08-12T06:31:26.819Z,20.00
2022-08-12T06:35:26.610Z,20.00
2022-08-12T06:37:56.615Z,20.10
2022-08-12T06:41:19.506Z,20.10
2022-08-12T06:44:23.790Z,20.20
2022-08-12T06:47:26.802Z,20.20
2022-08-12T06:50:31.029Z,20.20
2022-08-12T06:53:37.195Z,20.30
2022-08-12T06:57:02.880Z,20.40
2022-08-12T07:00:05.357Z,20.40
2022-08-12T07:03:22.937Z,20.50
2022-08-12T07:06:26.825Z,20.50
2022-08-12T07:10:04.131Z,20.60
2022-08-12T07:12:54.975Z,20.70
2022-08-12T07:15:59.725Z,20.70
2022-08-12T07:19:04.225Z,20.80
2022-08-12T07:22:07.725Z,20.80
2022-08-12T07:25:28.725Z,20.90
2022-08-12T07:28:34.881Z,21.00
2022-08-12T07:31:40.114Z,21.10
2022-08-12T07:34:43.348Z,21.20
2022-08-12T07:37:47.264Z,21.30
2022-08-12T07:40:50.217Z,21.40
2022-08-12T07:43:59.056Z,21.50
2022-08-12T07:47:07.585Z,21.50
2022-08-12T07:50:11.691Z,21.70
2022-08-12T07:53:14.607Z,21.70
2022-08-12T07:56:18.362Z,21.80
2022-08-12T07:59:21.347Z,21.90
2022-08-12T08:02:26.890Z,22.00
2022-08-12T08:05:34.178Z,22.00
2022-08-12T08:08:37.106Z,22.20
2022-08-12T08:11:57.806Z,22.20
2022-08-12T08:15:02.863Z,22.30
2022-08-12T08:18:09.637Z,22.50
2022-08-12T08:21:12.545Z,22.70
2022-08-12T08:24:15.511Z,22.70
2022-08-12T08:27:18.476Z,22.80
2022-08-12T08:30:21.419Z,22.90
2022-08-12T08:34:09.422Z,22.90
2022-08-12T08:36:49.117Z,23.10
2022-08-12T08:39:52.038Z,23.20
2022-08-12T08:42:54.168Z,23.30
2022-08-12T08:45:57.676Z,23.40
2022-08-12T08:49:02.206Z,23.50
2022-08-12T08:52:06.432Z,23.60
2022-08-12T08:55:10.703Z,23.80
2022-08-12T08:58:13.768Z,23.80
2022-08-12T09:01:22.435Z,23.90
2022-08-12T09:05:12.089Z,24.10
2022-08-12T09:08:08.951Z,24.10
2022-08-12T09:12:07.572Z,24.10
2022-08-12T09:14:51.484Z,24.30
2022-08-12T09:17:55.962Z,24.30
2022-08-12T09:21:03.778Z,24.50
2022-08-12T09:24:10.401Z,24.50
2022-08-12T09:27:16.739Z,24.60
2022-08-12T09:30:42.325Z,24.80
2022-08-12T09:34:29.362Z,24.80
2022-08-12T09:37:20.160Z,24.90
2022-08-12T09:40:55.670Z,25.00
2022-08-12T09:44:06.824Z,25.10
2022-08-12T09:47:29.806Z,25.30
2022-08-12T09:50:37.147Z,25.30
2022-08-12T09:53:42.077Z,25.40
2022-08-12T09:57:01.778Z,25.40
2022-08-12T10:00:16.687Z,25.40
2022-08-12T10:03:31.867Z,25.30
2022-08-12T10:06:36.833Z,25.20
2022-08-12T10:09:59.270Z,25.20
2022-08-12T10:13:34.589Z,25.30
2022-08-12T10:16:43.855Z,25.40
2022-08-12T10:19:51.930Z,25.60
2022-08-12T10:23:00.172Z,25.50
2022-08-12T10:26:38.725Z,25.40
2022-08-12T10:30:37.510Z,25.40
2022-08-12T10:33:18.497Z,25.20
2022-08-12T10:36:40.087Z,25.20
2022-08-12T10:40:00.897Z,25.30
2022-08-12T10:43:28.388Z,25.20
2022-08-12T10:46:52.818Z,25.30
2022-08-12T10:50:07.063Z,25.40
2022-08-12T10:53:20.303Z,25.60
2022-08-12T10:56:48.829Z,25.90
2022-08-12T11:00:31.315Z,26.20
2022-08-12T11:04:24.693Z,26.40
2022-08-12T11:07:06.489Z,26.40
2022-08-12T11:10:10.987Z,26.40
2022-08-12T11:13:13.916Z,26.60
2022-08-12T11:16:22.149Z,26.70
2022-08-12T11:19:26.390Z,26.80
2022-08-12T11:22:33.311Z,26.90
2022-08-12T11:25:55.928Z,27.10
2022-08-12T11:29:05.863Z,27.30
2022-08-12T11:32:24.106Z,27.50
2022-08-12T11:35:29.578Z,27.70
2022-08-12T11:38:32.559Z,27.90
2022-08-12T11:41:39.196Z,28.00
2022-08-12T11:44:43.236Z,28.10
2022-08-12T11:47:49.290Z,28.00
2022-08-12T11:50:57.754Z,27.90
2022-08-12T11:54:01.527Z,27.80
2022-08-12T11:57:52.441Z,27.70
2022-08-12T12:03:54.755Z,28.10
2022-08-12T12:07:06.623Z,28.10
2022-08-12T12:10:12.202Z,28.30
2022-08-12T12:14:05.353Z,28.30
2022-08-12T12:16:39.938Z,28.20
2022-08-12T12:19:46.618Z,28.30
2022-08-12T12:22:49.535Z,28.50
2022-08-12T12:26:07.040Z,28.70
2022-08-12T12:30:18.783Z,28.70
2022-08-12T12:32:34.236Z,28.60
2022-08-12T12:36:06.473Z,28.40
2022-08-12T12:39:02.665Z,28.20
2022-08-12T12:42:52.197Z,28.30
2022-08-12T12:45:35.605Z,28.30
2022-08-12T12:48:44.027Z,28.60
2022-08-12T12:52:18.571Z,28.70
2022-08-12T12:55:13.306Z,28.80
2022-08-12T12:58:17.481Z,29.00
2022-08-12T13:01:27.985Z,29.00
2022-08-12T13:04:34.919Z,29.10
2022-08-12T13:07:49.455Z,29.20
2022-08-12T13:11:00.492Z,29.30
2022-08-12T13:14:08.731Z,29.40
2022-08-12T13:17:16.637Z,29.60
2022-08-12T13:20:33.633Z,29.70
2022-08-12T13:23:46.422Z,29.60
2022-08-12T13:26:50.939Z,29.60
2022-08-12T13:29:56.223Z,29.50
2022-08-12T13:33:01.044Z,29.50
2022-08-12T13:36:10.207Z,29.50
2022-08-12T13:39:16.608Z,29.50
2022-08-12T13:42:19.744Z,29.60
2022-08-12T13:45:22.854Z,29.60
2022-08-12T13:48:28.912Z,29.70
2022-08-12T13:51:41.145Z,29.90
2022-08-12T13:54:47.440Z,29.90
2022-08-12T13:58:01.683Z,30.10
2022-08-12T14:01:06.458Z,30.30
2022-08-12T14:04:12.281Z,30.30
2022-08-12T14:07:15.618Z,30.40
2022-08-12T14:10:46.368Z,30.50
2022-08-12T14:14:04.123Z,30.40
2022-08-12T14:17:19.877Z,30.40
2022-08-12T14:20:23.313Z,30.60
2022-08-12T14:24:04.186Z,30.70
2022-08-12T14:26:56.763Z,30.50
2022-08-12T14:30:15.461Z,30.60
2022-08-12T14:33:21.790Z,30.50
2022-08-12T14:36:26.342Z,30.40
2022-08-12T14:39:29.554Z,30.40
2022-08-12T14:42:35.476Z,30.50
2022-08-12T14:45:47.047Z,30.50
2022-08-12T14:48:54.488Z,30.50
2022-08-12T14:52:57.720Z,30.60
2022-08-12T14:58:59.281Z,30.40
2022-08-12T15:02:04.105Z,30.20
2022-08-12T15:06:05.327Z,30.10
2022-08-12T15:08:39.934Z,30.00
2022-08-12T15:11:55.192Z,30.00
2022-08-12T15:15:00.323Z,30.20
2022-08-12T15:18:05.598Z,30.00
2022-08-12T15:21:11.754Z,30.00
2022-08-12T15:24:14.820Z,29.90
2022-08-12T15:27:22.581Z,30.00
2022-08-12T15:30:44.624Z,30.00
2022-08-12T15:33:50.058Z,29.90
2022-08-12T15:36:55.648Z,29.90
2022-08-12T15:40:01.316Z,29.60
2022-08-12T15:43:08.156Z,29.60
2022-08-12T15:46:15.138Z,29.60
2022-08-12T15:49:19.216Z,29.50
2022-08-12T15:52:27.506Z,29.30
2022-08-12T15:55:33.776Z,29.30
2022-08-12T15:58:38.247Z,29.30
2022-08-12T16:01:43.414Z,29.10
2022-08-12T16:04:50.287Z,29.10
2022-08-12T16:07:53.862Z,28.90
2022-08-12T16:10:57.569Z,28.70
2022-08-12T16:14:00.561Z,28.60
2022-08-12T16:17:05.430Z,28.40
2022-08-12T16:20:21.071Z,28.30
2022-08-12T16:23:36.404Z,28.10
2022-08-12T16:26:51.415Z,28.10
2022-08-12T16:29:59.145Z,28.10
2022-08-12T16:33:10.234Z,27.90
2022-08-12T16:36:18.876Z,27.90
2022-08-12T16:39:22.212Z,27.80
2022-08-12T16:42:28.399Z,27.60
2022-08-12T16:46:24.041Z,27.60
2022-08-12T16:48:59.600Z,27.50
2022-08-12T16:52:09.238Z,27.40
2022-08-12T16:55:15.733Z,27.30
2022-08-12T16:58:30.441Z,27.40
2022-08-12T17:01:35.958Z,27.40
2022-08-12T17:04:42.891Z,27.40
2022-08-12T17:07:56.256Z,27.30
2022-08-12T17:10:59.796Z,27.20
2022-08-12T17:14:02.702Z,27.20
2022-08-12T17:17:09.784Z,27.10
2022-08-12T17:20:37.515Z,26.80
2022-08-12T17:23:48.701Z,26.80
2022-08-12T17:26:57.508Z,26.80
2022-08-12T17:30:04.411Z,26.80
2022-08-12T17:33:08.811Z,26.80
2022-08-12T17:36:13.088Z,26.70
2022-08-12T17:39:19.916Z,26.70
2022-08-12T17:42:32.638Z,26.80
2022-08-12T17:45:40.663Z,26.70
2022-08-12T17:48:54.539Z,26.70
2022-08-12T17:52:02.528Z,26.60
2022-08-12T17:55:40.793Z,26.60
2022-08-12T17:58:36.896Z,26.60
2022-08-12T18:01:43.055Z,26.70
2022-08-12T18:05:05.251Z,26.40
2022-08-12T18:08:13.223Z,26.40
2022-08-12T18:12:06.050Z,26.30
2022-08-12T18:14:58.350Z,26.30
2022-08-12T18:18:03.110Z,26.30
2022-08-12T18:21:07.530Z,26.30
2022-08-12T18:24:22.245Z,26.20
2022-08-12T18:27:44.729Z,26.20
2022-08-12T18:30:52.310Z,26.10
2022-08-12T18:34:00.918Z,26.10
2022-08-12T18:37:26.663Z,26.00
2022-08-12T18:40:48.181Z,25.90
2022-08-12T18:44:00.047Z,25.80
2022-08-12T18:47:09.581Z,25.80
2022-08-12T18:50:16.442Z,25.70
2022-08-12T18:54:06.412Z,25.70
2022-08-12T18:56:46.328Z,25.60
2022-08-12T19:00:00.839Z,25.60
2022-08-12T19:03:09.148Z,25.60
2022-08-12T19:06:27.346Z,25.50
2022-08-12T19:09:38.968Z,25.40
2022-08-12T19:13:01.642Z,25.30
2022-08-12T19:16:10.710Z,25.20
2022-08-12T19:19:17.419Z,25.20
2022-08-12T19:22:28.724Z,25.10
2022-08-12T19:26:01.061Z,25.00
2022-08-12T19:29:03.357Z,25.00
2022-08-12T19:32:09.597Z,24.90
2022-08-12T19:38:36.022Z,24.80
2022-08-12T19:41:42.698Z,24.70
2022-08-12T19:45:04.829Z,24.60
2022-08-12T19:48:16.622Z,24.60
2022-08-12T19:51:33.215Z,24.50
2022-08-12T19:54:36.632Z,24.40
2022-08-12T19:57:42.545Z,24.40
2022-08-12T20:01:11.084Z,24.30
2022-08-12T20:04:15.014Z,24.20
2022-08-12T20:07:24.284Z,24.20
2022-08-12T20:10:35.356Z,24.10
2022-08-12T20:13:42.154Z,24.00
2022-08-12T20:16:53.227Z,23.90
2022-08-12T20:20:19.409Z,23.90
2022-08-12T20:23:50.726Z,23.80
2022-08-12T20:26:48.350Z,23.80
2022-08-12T20:29:54.389Z,23.70
2022-08-12T20:33:00.869Z,23.70
2022-08-12T20:36:14.197Z,23.60
2022-08-12T20:39:52.126Z,23.60
2022-08-12T20:42:53.498Z,23.50
2022-08-12T20:45:58.045Z,23.50
2022-08-12T20:49:14.411Z,23.50
2022-08-12T20:52:22.484Z,23.50
2022-08-12T20:55:42.347Z,23.40
2022-08-12T20:58:46.641Z,23.30
2022-08-12T21:01:53.909Z,23.30
2022-08-12T21:05:19.513Z,23.20
2022-08-12T21:08:26.599Z,23.20
2022-08-12T21:11:30.300Z,23.20
2022-08-12T21:14:39.776Z,23.10
2022-08-12T21:18:10.747Z,23.10
2022-08-12T21:21:49.765Z,23.00
2022-08-12T21:24:50.916Z,23.00
2022-08-12T21:27:58.852Z,23.00
2022-08-12T21:32:34.977Z,22.90
2022-08-12T21:34:29.238Z,22.90
2022-08-12T21:37:37.418Z,22.90
2022-08-12T21:40:52.172Z,22.80
2022-08-12T21:44:00.835Z,22.70
2022-08-12T21:47:20.379Z,22.70
2022-08-12T21:50:29.191Z,22.60
2022-08-12T21:54:07.257Z,22.50
2022-08-12T21:56:56.638Z,22.50
2022-08-12T21:59:59.586Z,22.30
2022-08-12T22:04:01.779Z,22.30
2022-08-12T22:06:53.409Z,22.30
2022-08-12T22:09:58.739Z,22.30
2022-08-12T22:13:01.689Z,22.30
2022-08-12T22:16:05.146Z,22.20
2022-08-12T22:19:08.082Z,22.20
2022-08-12T22:22:12.288Z,22.10
2022-08-12T22:25:16.767Z,22.10
2022-08-12T22:28:40.480Z,22.00
2022-08-12T22:31:43.462Z,22.00
2022-08-12T22:34:46.669Z,22.00
2022-08-12T22:37:49.600Z,22.00
2022-08-12T22:41:00.829Z,21.90
2022-08-12T22:44:23.120Z,21.90
2022-08-12T22:47:53.503Z,21.80
2022-08-12T22:50:59.572Z,21.70
2022-08-12T22:54:02.666Z,21.70
2022-08-12T22:57:12.064Z,21.60
2022-08-12T23:00:24.447Z,21.70
2022-08-12T23:03:48.787Z,21.60
2022-08-12T23:06:55.964Z,21.50
2022-08-12T23:09:58.852Z,21.50
2022-08-12T23:13:23.138Z,21.40
2022-08-12T23:16:31.736Z,21.40
2022-08-12T23:19:38.421Z,21.30
2022-08-12T23:22:56.206Z,21.40
2022-08-12T23:26:06.313Z,21.40
2022-08-12T23:29:30.125Z,21.30
2022-08-12T23:32:38.521Z,21.20
2022-08-12T23:35:53.842Z,21.20
2022-08-12T23:39:06.669Z,21.20
2022-08-12T23:42:31.277Z,21.20
2022-08-12T23:45:35.792Z,21.10
2022-08-12T23:48:40.076Z,21.10
2022-08-12T23:51:43.840Z,21.10
2022-08-12T23:54:58.077Z,21.00
2022-08-12T23:58:21.854Z,21.00
